• Join FlightAware (Why Join?)
  • Login
  • US Flag 
05:24PM EDT


 

Airport Tracker/Info


-or-


 

Live Flight TrackerFlight Track Log ✈ LXJ537 ✈ 20-Jun-2013 ✈ KLNK - KBTL

Flight Track Log - Related Links

Times and Time Zones

All times are in EDT time to prevent confusion due to time zone crossing. See the LXJ537 flight status page for this flight to view local times or setup timezone preferences in your user account.

Time Position Orientation Groundspeed Altitude Reporting Facility
EDT Latitude Longitude Course Direction KTS MPH feet Rate Location/Type
12:34PM 40.7822 -96.6831 133° Southeast 263 303 5,400  Level Minneapolis Center
12:36PM 40.8106 -96.5847 69° East 277 319 9,400 3,240 Climbing Minneapolis Center
12:37PM 40.8403 -96.4558 73° East 291 335 12,800 3,000 Climbing Minneapolis Center
12:38PM 40.8714 -96.3175 73° East 356 410 15,600 3,120 Climbing Minneapolis Center
12:39PM 40.9011 -96.1847 73° East 375 432 19,300 3,240 Climbing Minneapolis Center
12:40PM 40.9311 -96.0469 74° East 387 445 22,300 3,060 Climbing Minneapolis Center
12:41PM 40.9636 -95.9025 73° East 404 465 25,700 2,220 Climbing Minneapolis Center
12:42PM 40.9969 -95.7536 73° East 417 480 27,000 600 Climbing Minneapolis Center
12:43PM 41.0389 -95.5594 74° East 450 518 27,000  Level Minneapolis Center
12:44PM 41.0753 -95.3964 73° East 462 532 27,000  Level Minneapolis Center
12:45PM 41.1106 -95.2328 74° East 463 533 27,000  Level Minneapolis Center
12:46PM 41.1458 -95.0683 74° East 465 535 27,000  Level Minneapolis Center
12:47PM 41.1858 -94.8736 75° East 461 531 27,000  Level Minneapolis Center
12:48PM 41.2278 -94.6775 74° East 461 531 27,000  Level Minneapolis Center
12:49PM 41.2614 -94.5128 75° East 461 531 27,000  Level Minneapolis Center
12:50PM 41.2889 -94.3769 75° East 469 540 27,000  Level Minneapolis Center
12:51PM 41.3311 -94.1714 75° East 476 548 27,000  Level Minneapolis Center
12:52PM 41.3667 -94.0017 74° East 477 549 27,000  Level Minneapolis Center
12:53PM 41.4011 -93.8325 75° East 477 549 27,000  Level Minneapolis Center
12:54PM 41.4433 -93.6306 74° East 476 548 27,000  Level Minneapolis Center
12:56PM 41.4986 -93.4733 65° Northeast 473 544 27,000  Level Minneapolis Center
12:57PM 41.5522 -93.3150 66° East 471 542 27,000  Level Minneapolis Center
12:58PM 41.6178 -93.1258 65° Northeast 470 541 27,000  Level Minneapolis Center
12:59PM 41.6692 -92.9664 67° East 470 541 27,000  Level Minneapolis Center
01:00PM 41.6889 -92.7894 81° East 474 545 27,000  Level Minneapolis Center
01:01PM 41.7136 -92.5814 81° East 476 548 27,000  Level Minneapolis Center
01:02PM 41.7253 -92.4767 81° East 474 545 27,000  Level Chicago Center
01:03PM 41.7456 -92.3047 81° East 474 545 27,000  Level Chicago Center
01:04PM 41.7644 -92.1306 82° East 478 550 27,000  Level Chicago Center
01:05PM 41.7869 -91.9269 82° East 470 541 27,000  Level Chicago Center
01:06PM 41.8050 -91.7525 82° East 476 548 27,000  Level Chicago Center
01:07PM 41.8233 -91.5825 82° East 469 540 27,000  Level Chicago Center
01:08PM 41.8414 -91.4128 82° East 467 537 27,000  Level Chicago Center
01:09PM 41.8625 -91.2067 82° East 469 540 27,000  Level Chicago Center
01:10PM 41.8789 -91.0350 83° East 470 541 27,000  Level Chicago Center
01:11PM 41.8961 -90.8650 82° East 469 540 27,000  Level Chicago Center
01:12PM 41.9128 -90.6942 82° East 470 541 27,000  Level Chicago Center
01:13PM 41.9314 -90.4917 83° East 462 532 27,000  Level Chicago Center
01:14PM 41.9478 -90.3211 83° East 465 535 27,000  Level Chicago Center
01:15PM 41.9622 -90.1525 83° East 462 532 27,000  Level Chicago Center
01:16PM 41.9781 -89.9808 83° East 466 536 27,000  Level Chicago Center
01:17PM 41.9958 -89.7933 83° East 464 534 27,000  Level Chicago Center
01:18PM 42.0106 -89.6222 83° East 464 534 27,000  Level Chicago Center
01:19PM 42.0267 -89.4469 83° East 473 544 27,000  Level Chicago Center
01:20PM 42.0447 -89.2436 83° East 461 531 27,000  Level Chicago Center
01:21PM 42.0586 -89.0731 84° East 459 528 27,000  Level Chicago Center
01:22PM 42.0728 -88.8969 84° East 461 531 27,000  Level Chicago Center
01:23PM 42.0875 -88.7303 83° East 464 534 27,000  Level Chicago Center
01:24PM 42.1000 -88.5575 84° East 464 534 27,000  Level Chicago Center
01:25PM 42.1131 -88.3867 84° East 461 531 27,000  Level Chicago Center
01:26PM 42.1289 -88.1792 84° East 462 532 27,000  Level Chicago Center
01:27PM 42.1411 -88.0061 85° East 463 533 27,000  Level Chicago Center
01:28PM 42.1539 -87.8347 84° East 461 531 27,000  Level Chicago Center
01:30PM 42.1656 -87.6608 85° East 465 535 27,000 -60 Level Chicago Center
01:31PM 42.1767 -87.4881 85° East 465 535 26,900 -1,020 Descending Chicago Center
01:32PM 42.1883 -87.3172 85° East 460 529 24,900 -2,160 Descending Chicago Center
01:33PM 42.2028 -87.1186 84° East 448 516 22,500 -2,220 Descending Chicago Center
01:34PM 42.2106 -86.9558 86° East 439 505 20,400 -2,340 Descending Chicago Center
01:35PM 42.2208 -86.7986 85° East 425 489 17,700 -2,760 Descending Chicago Center
01:36PM 42.2311 -86.6372 85° East 399 459 14,800 -2,580 Descending Chicago Center
01:37PM 42.2397 -86.5033 85° East 365 420 12,400 -1,800 Descending Chicago Center
01:38PM 42.2464 -86.3786 86° East 340 391 11,100 -720 Descending Chicago Center
01:39PM 42.2531 -86.2575 86° East 328 377 11,000 -60 Descending Chicago Center
01:40PM 42.2597 -86.1411 86° East 316 364 11,000  Level Chicago Center
01:41PM 42.2664 -86.0222 86° East 317 365 11,000 -480 Level Chicago Center
01:42PM 42.2736 -85.8997 85° East 297 342 10,100 -1,680 Descending Chicago Center
01:43PM 42.2794 -85.7867 86° East 281 323 7,600 -2,040 Descending Chicago Center
01:44PM 42.2897 -85.6914 82° East 285 328 6,000 -1,320 Descending Chicago Center
01:45PM 42.3183 -85.5769 71° East 274 315 4,900 -900 Descending Chicago Center
01:46PM 42.3408 -85.4853 72° East 264 304 4,200 -540 Descending Chicago Center
01:47PM 42.3642 -85.3961 70° East 256 295 3,800 -660 Descending Chicago Center
01:48PM 42.3928 -85.3217 62° Northeast 234 269 2,900 -660 Descending Chicago Center
01:49PM 42.4042 -85.2611 76° East 191 220 2,500 -300 Descending Chicago Center
01:50PM 42.3669 -85.2064 133° Southeast 164 189 2,400 -540 Descending Chicago Center
01:51PM 42.3350 -85.2194 197° South 145 167 1,500 -540 Descending Chicago Center
01:52PM 42.3075 -85.2486 218° Southwest 141 162 1,400 -120 Descending Chicago Center